sensor_id;sensor_type;location;lat;lon;timestamp;pressure;altitude;pressure_sealevel;temperature;humidity
68169;BME280;54981;50.206;15.978;2024-03-08T00:04:15;99347.78;;;-0.90;100.00
68169;BME280;54981;50.206;15.978;2024-03-08T00:19:15;99329.50;;;-0.98;100.00
68169;BME280;54981;50.206;15.978;2024-03-08T00:34:16;99335.66;;;-1.25;100.00
68169;BME280;54981;50.206;15.978;2024-03-08T00:49:16;99334.75;;;-1.15;100.00
68169;BME280;54981;50.206;15.978;2024-03-08T01:04:17;99317.38;;;-1.31;100.00
68169;BME280;54981;50.206;15.978;2024-03-08T01:19:18;99310.44;;;-1.54;100.00
68169;BME280;54981;50.206;15.978;2024-03-08T01:34:18;99312.16;;;-1.77;100.00
68169;BME280;54981;50.206;15.978;2024-03-08T01:49:20;99302.59;;;-1.84;100.00
68169;BME280;54981;50.206;15.978;2024-03-08T02:04:21;99292.16;;;-1.84;100.00
68169;BME280;54981;50.206;15.978;2024-03-08T02:19:22;99284.28;;;-1.83;100.00
68169;BME280;54981;50.206;15.978;2024-03-08T02:34:22;99271.25;;;-1.78;100.00
68169;BME280;54981;50.206;15.978;2024-03-08T02:49:22;99266.91;;;-1.87;100.00
68169;BME280;54981;50.206;15.978;2024-03-08T03:04:23;99266.03;;;-2.03;100.00
68169;BME280;54981;50.206;15.978;2024-03-08T03:19:23;99266.03;;;-2.06;100.00
68169;BME280;54981;50.206;15.978;2024-03-08T03:34:24;99255.53;;;-2.49;100.00
68169;BME280;54981;50.206;15.978;2024-03-08T03:49:24;99252.06;;;-2.45;100.00
68169;BME280;54981;50.206;15.978;2024-03-08T04:04:24;99232.06;;;-2.60;100.00
68169;BME280;54981;50.206;15.978;2024-03-08T04:19:24;99225.09;;;-2.62;100.00
68169;BME280;54981;50.206;15.978;2024-03-08T04:34:26;99229.44;;;-2.58;100.00
68169;BME280;54981;50.206;15.978;2024-03-08T04:49:28;99235.44;;;-2.85;100.00
68169;BME280;54981;50.206;15.978;2024-03-08T05:04:29;99229.31;;;-2.89;100.00
68169;BME280;54981;50.206;15.978;2024-03-08T05:19:29;99232.84;;;-2.81;100.00
68169;BME280;54981;50.206;15.978;2024-03-08T05:34:32;99242.34;;;-2.89;100.00
68169;BME280;54981;50.206;15.978;2024-03-08T05:49:33;99238.06;;;-2.78;100.00
68169;BME280;54981;50.206;15.978;2024-03-08T06:04:34;99246.88;;;-2.36;100.00
68169;BME280;54981;50.206;15.978;2024-03-08T06:19:34;99245.16;;;-2.03;100.00
68169;BME280;54981;50.206;15.978;2024-03-08T06:34:36;99248.66;;;-1.95;100.00
68169;BME280;54981;50.206;15.978;2024-03-08T06:49:36;99232.06;;;-1.38;100.00
68169;BME280;54981;50.206;15.978;2024-03-08T07:04:37;99236.22;;;-0.79;100.00
68169;BME280;54981;50.206;15.978;2024-03-08T07:19:38;99227.94;;;-0.10;100.00
68169;BME280;54981;50.206;15.978;2024-03-08T07:34:38;99219.69;;;0.39;100.00
68169;BME280;54981;50.206;15.978;2024-03-08T07:49:40;99210.44;;;0.90;100.00
68169;BME280;54981;50.206;15.978;2024-03-08T08:04:40;99200.97;;;2.03;100.00
68169;BME280;54981;50.206;15.978;2024-03-08T08:19:41;99200.22;;;2.93;100.00
68169;BME280;54981;50.206;15.978;2024-03-08T08:34:43;99193.59;;;3.57;100.00
68169;BME280;54981;50.206;15.978;2024-03-08T08:49:44;99183.63;;;4.42;100.00
68169;BME280;54981;50.206;15.978;2024-03-08T09:04:46;99177.47;;;5.07;100.00
68169;BME280;54981;50.206;15.978;2024-03-08T09:19:48;99163.13;;;5.73;100.00
68169;BME280;54981;50.206;15.978;2024-03-08T09:34:48;99149.78;;;6.56;100.00
68169;BME280;54981;50.206;15.978;2024-03-08T09:49:49;99139.50;;;6.97;100.00
68169;BME280;54981;50.206;15.978;2024-03-08T10:04:51;99124.94;;;7.55;100.00
68169;BME280;54981;50.206;15.978;2024-03-08T10:19:53;99111.00;;;7.94;100.00
68169;BME280;54981;50.206;15.978;2024-03-08T10:34:53;99107.06;;;8.65;100.00
68169;BME280;54981;50.206;15.978;2024-03-08T10:49:55;99090.19;;;9.06;100.00
68169;BME280;54981;50.206;15.978;2024-03-08T11:04:55;99075.75;;;9.67;92.62
68169;BME280;54981;50.206;15.978;2024-03-08T11:19:56;99060.78;;;10.00;92.65
68169;BME280;54981;50.206;15.978;2024-03-08T11:34:59;99054.91;;;10.63;74.37
68169;BME280;54981;50.206;15.978;2024-03-08T11:49:59;99038.38;;;10.57;78.37
68169;BME280;54981;50.206;15.978;2024-03-08T12:05:00;99011.44;;;10.79;86.98
68169;BME280;54981;50.206;15.978;2024-03-08T12:20:15;99000.63;;;10.66;85.44
68169;BME280;54981;50.206;15.978;2024-03-08T12:35:15;98987.84;;;11.04;81.53
68169;BME280;54981;50.206;15.978;2024-03-08T12:50:16;98984.13;;;9.74;100.00
68169;BME280;54981;50.206;15.978;2024-03-08T13:05:17;98964.66;;;9.56;100.00
68169;BME280;54981;50.206;15.978;2024-03-08T13:20:17;98961.78;;;9.60;100.00
68169;BME280;54981;50.206;15.978;2024-03-08T13:35:22;98958.44;;;10.58;96.63
68169;BME280;54981;50.206;15.978;2024-03-08T13:50:27;98948.53;;;10.44;98.67
68169;BME280;54981;50.206;15.978;2024-03-08T14:05:28;98933.59;;;10.24;100.00
68169;BME280;54981;50.206;15.978;2024-03-08T14:20:31;98931.13;;;9.71;100.00
68169;BME280;54981;50.206;15.978;2024-03-08T14:35:32;98924.31;;;8.94;100.00
68169;BME280;54981;50.206;15.978;2024-03-08T14:50:32;98911.19;;;8.55;100.00
68169;BME280;54981;50.206;15.978;2024-03-08T15:05:35;98904.44;;;7.89;100.00
68169;BME280;54981;50.206;15.978;2024-03-08T15:20:40;98896.38;;;8.11;100.00
68169;BME280;54981;50.206;15.978;2024-03-08T15:35:41;98899.66;;;8.16;100.00
68169;BME280;54981;50.206;15.978;2024-03-08T15:50:42;98889.44;;;7.88;100.00
68169;BME280;54981;50.206;15.978;2024-03-08T16:05:43;98888.41;;;7.72;100.00
68169;BME280;54981;50.206;15.978;2024-03-08T16:20:44;98887.81;;;7.65;100.00
68169;BME280;54981;50.206;15.978;2024-03-08T16:35:44;98890.84;;;7.35;100.00
68169;BME280;54981;50.206;15.978;2024-03-08T16:50:46;98879.84;;;7.03;100.00
68169;BME280;54981;50.206;15.978;2024-03-08T17:05:46;98887.50;;;6.89;100.00
68169;BME280;54981;50.206;15.978;2024-03-08T17:20:51;98894.00;;;6.58;100.00
68169;BME280;54981;50.206;15.978;2024-03-08T17:35:51;98887.22;;;6.51;100.00
68169;BME280;54981;50.206;15.978;2024-03-08T17:50:52;98881.94;;;6.29;100.00
68169;BME280;54981;50.206;15.978;2024-03-08T18:05:54;98879.38;;;6.04;100.00
68169;BME280;54981;50.206;15.978;2024-03-08T18:20:55;98869.69;;;6.03;100.00
68169;BME280;54981;50.206;15.978;2024-03-08T18:35:55;98871.59;;;5.74;100.00
68169;BME280;54981;50.206;15.978;2024-03-08T18:50:56;98855.41;;;5.60;100.00
68169;BME280;54981;50.206;15.978;2024-03-08T19:05:59;98857.94;;;5.63;100.00
68169;BME280;54981;50.206;15.978;2024-03-08T19:21:02;98840.84;;;5.73;100.00
68169;BME280;54981;50.206;15.978;2024-03-08T19:36:03;98832.34;;;5.65;100.00
68169;BME280;54981;50.206;15.978;2024-03-08T19:51:04;98824.91;;;5.51;100.00
68169;BME280;54981;50.206;15.978;2024-03-08T20:06:05;98804.72;;;5.74;100.00
68169;BME280;54981;50.206;15.978;2024-03-08T20:21:06;98800.88;;;6.06;100.00
68169;BME280;54981;50.206;15.978;2024-03-08T20:36:08;98787.59;;;6.08;100.00
68169;BME280;54981;50.206;15.978;2024-03-08T20:51:09;98776.97;;;6.09;100.00
68169;BME280;54981;50.206;15.978;2024-03-08T21:06:11;98771.81;;;6.06;100.00
68169;BME280;54981;50.206;15.978;2024-03-08T21:21:15;98758.09;;;6.18;100.00
68169;BME280;54981;50.206;15.978;2024-03-08T21:36:15;98751.88;;;6.19;100.00
68169;BME280;54981;50.206;15.978;2024-03-08T21:51:17;98731.91;;;6.12;100.00
68169;BME280;54981;50.206;15.978;2024-03-08T22:06:17;98721.34;;;6.12;100.00
68169;BME280;54981;50.206;15.978;2024-03-08T22:21:18;98706.69;;;6.04;100.00
68169;BME280;54981;50.206;15.978;2024-03-08T22:36:19;98697.09;;;6.01;100.00
68169;BME280;54981;50.206;15.978;2024-03-08T22:51:21;98691.22;;;5.94;100.00
68169;BME280;54981;50.206;15.978;2024-03-08T23:06:25;98675.44;;;5.91;100.00
68169;BME280;54981;50.206;15.978;2024-03-08T23:21:27;98662.09;;;5.96;100.00
68169;BME280;54981;50.206;15.978;2024-03-08T23:36:27;98666.94;;;6.07;100.00
68169;BME280;54981;50.206;15.978;2024-03-08T23:51:28;98649.69;;;5.98;100.00
